Time;durP1;ratioP1;P1;durP2;ratioP2;P2;SDS_P1;SDS_P2;PMS_P1;PMS_P2;Temp;Humidity;BMP_temperature;BMP_pressure;BME280_temperature;BME280_humidity;BME280_pressure;Samples;Min_cycle;Max_cycle;Signal;HPM_P1;HPM_P2
2023/03/14 00:00:10;;;;;;;3.63;2.10;;;9.90;88.90;;;;;;4923715;29;20106;-74
2023/03/14 00:02:37;;;;;;;7.05;2.50;;;9.90;89.10;;;;;;4920718;29;20051;-74
2023/03/14 00:05:06;;;;;;;4.07;2.05;;;9.90;88.90;;;;;;4915759;29;20066;-74
2023/03/14 00:07:38;;;;;;;5.43;1.75;;;9.90;88.90;;;;;;4924665;29;20051;-74
2023/03/14 00:10:10;;;;;;;7.10;2.08;;;9.90;89.10;;;;;;4922091;29;20048;-74
2023/03/14 00:12:37;;;;;;;8.10;2.22;;;9.90;89.20;;;;;;4923958;29;20055;-73
2023/03/14 00:15:06;;;;;;;5.03;2.15;;;9.80;89.30;;;;;;4934623;28;20139;-74
2023/03/14 00:17:35;;;;;;;5.18;2.10;;;9.80;89.40;;;;;;4924376;29;20083;-74
2023/03/14 00:20:07;;;;;;;3.47;2.10;;;9.80;89.40;;;;;;4925705;29;20679;-74
2023/03/14 00:22:35;;;;;;;4.28;2.15;;;9.70;89.80;;;;;;4921331;29;20099;-74
2023/03/14 00:25:04;;;;;;;7.00;2.13;;;9.70;90.00;;;;;;4925539;29;20047;-74
2023/03/14 00:27:31;;;;;;;2.70;2.00;;;9.60;90.30;;;;;;4922226;29;20048;-74
2023/03/14 00:29:58;;;;;;;7.18;2.10;;;9.50;90.40;;;;;;4921049;29;20051;-74
2023/03/14 00:32:25;;;;;;;3.35;1.80;;;9.50;90.90;;;;;;4923727;29;20047;-74
2023/03/14 00:34:52;;;;;;;7.78;2.28;;;9.50;91.50;;;;;;4923623;29;20060;-74
2023/03/14 00:37:19;;;;;;;5.53;1.85;;;9.50;91.50;;;;;;4922819;29;20059;-74
2023/03/14 00:39:46;;;;;;;4.05;1.92;;;9.50;91.70;;;;;;4922673;29;20055;-74
2023/03/14 00:42:13;;;;;;;5.95;2.25;;;9.50;91.90;;;;;;4922018;29;20059;-74
2023/03/14 00:44:40;;;;;;;13.23;2.78;;;9.60;92.30;;;;;;4924284;29;20048;-74
2023/03/14 00:47:07;;;;;;;5.65;2.50;;;9.70;92.20;;;;;;4922788;29;20058;-74
2023/03/14 00:49:34;;;;;;;6.25;2.38;;;9.80;92.00;;;;;;4923121;29;20205;-74
2023/03/14 00:52:01;;;;;;;5.88;2.72;;;9.90;91.80;;;;;;4936920;29;20047;-74
2023/03/14 00:54:27;;;;;;;3.13;2.03;;;9.90;91.40;;;;;;4922789;29;20062;-74
2023/03/14 00:56:55;;;;;;;6.43;2.40;;;10.00;91.20;;;;;;4924614;29;20066;-74
2023/03/14 00:59:21;;;;;;;4.85;2.40;;;10.00;91.20;;;;;;4923709;29;20111;-74
2023/03/14 01:01:48;;;;;;;5.57;2.38;;;10.10;90.90;;;;;;4923384;29;20113;-74
2023/03/14 01:04:15;;;;;;;8.05;2.38;;;10.20;90.70;;;;;;4938580;28;20052;-74
2023/03/14 01:06:42;;;;;;;4.63;2.45;;;10.20;90.40;;;;;;4922421;29;20559;-74
2023/03/14 01:09:09;;;;;;;6.50;2.10;;;10.20;90.40;;;;;;4936281;28;20125;-74
2023/03/14 01:11:36;;;;;;;5.22;2.17;;;10.20;90.50;;;;;;4936106;29;20044;-74
2023/03/14 01:14:04;;;;;;;6.03;2.25;;;10.20;90.60;;;;;;4923509;29;20708;-74
2023/03/14 01:16:35;;;;;;;3.97;2.20;;;10.10;90.60;;;;;;4921783;29;20051;-73
2023/03/14 01:19:02;;;;;;;4.25;2.53;;;10.20;90.60;;;;;;4923178;29;20048;-74
2023/03/14 01:21:33;;;;;;;7.55;2.67;;;10.10;90.40;;;;;;4936872;28;20132;-73
2023/03/14 01:24:01;;;;;;;9.73;2.60;;;10.10;90.50;;;;;;4922054;29;20775;-74
2023/03/14 01:26:31;;;;;;;5.13;2.40;;;10.00;90.40;;;;;;4926063;29;20074;-73
2023/03/14 01:28:58;;;;;;;6.35;2.70;;;10.00;90.40;;;;;;4924958;29;20050;-74
2023/03/14 01:31:26;;;;;;;10.80;2.20;;;10.00;90.50;;;;;;4941903;29;20047;-74
2023/03/14 01:33:53;;;;;;;4.85;2.30;;;10.00;90.50;;;;;;4923935;29;20497;-73
2023/03/14 01:36:20;;;;;;;7.13;2.50;;;9.90;90.60;;;;;;4940474;28;20051;-74
2023/03/14 01:38:47;;;;;;;3.58;2.28;;;9.80;90.90;;;;;;4939939;29;20044;-73
2023/03/14 01:41:18;;;;;;;9.07;2.90;;;9.80;90.90;;;;;;4924569;29;20062;-73
2023/03/14 01:43:45;;;;;;;5.53;2.45;;;9.90;90.70;;;;;;4926537;29;20583;-74
2023/03/14 01:46:19;;;;;;;8.35;2.67;;;9.90;90.60;;;;;;4925716;29;20062;-74
2023/03/14 01:48:57;;;;;;;10.80;2.47;;;10.00;90.20;;;;;;4925159;29;20405;-74
2023/03/14 01:51:45;;;;;;;6.28;3.03;;;10.10;90.10;;;;;;4925573;29;20603;-74
2023/03/14 01:54:27;;;;;;;5.15;2.15;;;10.10;89.70;;;;;;4926560;29;20060;-74
2023/03/14 01:56:59;;;;;;;6.82;2.30;;;10.10;89.60;;;;;;4927895;29;20493;-73
2023/03/14 01:59:30;;;;;;;3.50;2.13;;;10.20;89.20;;;;;;4941653;28;20051;-74
2023/03/14 02:01:57;;;;;;;8.48;2.28;;;10.20;88.90;;;;;;4927948;29;20058;-73
2023/03/14 02:04:30;;;;;;;6.43;2.30;;;10.20;88.70;;;;;;4926733;29;20603;-73
2023/03/14 02:07:17;;;;;;;6.85;2.03;;;10.20;88.40;;;;;;4927002;29;20048;-74
2023/03/14 02:09:44;;;;;;;5.63;2.40;;;10.20;88.40;;;;;;4919841;29;20044;-73
2023/03/14 02:12:15;;;;;;;4.25;2.00;;;10.20;88.40;;;;;;4927085;29;20048;-73
2023/03/14 02:14:47;;;;;;;9.18;2.15;;;10.20;88.40;;;;;;4928857;29;20056;-73
2023/03/14 02:17:17;;;;;;;7.38;2.50;;;10.20;89.10;;;;;;4923959;29;20051;-74
2023/03/14 02:20:10;;;;;;;4.88;2.70;;;10.10;88.30;;;;;;4925716;29;20533;-74
2023/03/14 02:22:39;;;;;;;11.05;2.63;;;10.20;89.40;;;;;;4927537;29;20062;-74
2023/03/14 02:25:34;;;;;;;7.70;2.42;;;10.10;90.00;;;;;;4940683;29;20064;-73
2023/03/14 02:28:01;;;;;;;9.90;2.55;;;10.10;89.90;;;;;;4938914;29;20584;-74
2023/03/14 02:30:30;;;;;;;4.40;2.25;;;10.10;89.70;;;;;;4925675;29;20703;-74
2023/03/14 02:33:02;;;;;;;8.88;2.25;;;10.10;89.80;;;;;;4926582;29;20051;-74
2023/03/14 02:35:44;;;;;;;7.05;2.13;;;10.10;89.60;;;;;;4926611;29;20083;-73
2023/03/14 02:38:23;;;;;;;7.43;2.40;;;10.10;89.50;;;;;;4925106;29;20130;-73
2023/03/14 02:40:50;;;;;;;6.78;2.55;;;10.00;89.60;;;;;;4927797;29;20059;-73
2023/03/14 02:43:18;;;;;;;6.88;2.40;;;10.00;89.10;;;;;;4927604;29;20056;-74
2023/03/14 02:45:47;;;;;;;8.77;2.45;;;9.90;89.30;;;;;;4925943;29;20146;-73
2023/03/14 02:48:43;;;;;;;6.35;2.28;;;9.90;89.20;;;;;;4927287;29;20147;-73
2023/03/14 02:51:10;;;;;;;7.68;2.50;;;9.90;89.00;;;;;;4920367;29;20128;-73
2023/03/14 02:53:38;;;;;;;7.18;2.78;;;9.90;88.80;;;;;;4924306;29;20461;-73
2023/03/14 02:56:05;;;;;;;3.35;1.92;;;9.90;88.80;;;;;;4940173;29;20074;-73
2023/03/14 02:58:32;;;;;;;7.18;2.25;;;9.90;88.90;;;;;;4926763;29;20055;-74
2023/03/14 03:00:59;;;;;;;8.10;1.98;;;9.90;89.10;;;;;;4926767;29;20056;-74
2023/03/14 03:03:26;;;;;;;5.40;2.25;;;9.80;89.00;;;;;;4927026;29;20083;-74
2023/03/14 03:05:55;;;;;;;7.00;2.17;;;9.90;88.50;;;;;;4920838;29;20700;-74
2023/03/14 03:08:25;;;;;;;10.93;2.72;;;9.90;88.60;;;;;;4925774;29;20062;-73
2023/03/14 03:10:53;;;;;;;7.65;2.42;;;9.90;88.50;;;;;;4925904;29;20074;-74
2023/03/14 03:13:20;;;;;;;4.63;1.80;;;9.90;88.50;;;;;;4925027;29;20047;-74
2023/03/14 03:15:47;;;;;;;4.20;2.22;;;9.90;88.50;;;;;;4924539;29;20053;-73
2023/03/14 03:18:14;;;;;;;5.15;2.30;;;9.90;88.70;;;;;;4924997;29;20055;-73
2023/03/14 03:20:41;;;;;;;8.63;2.33;;;9.80;88.60;;;;;;4924528;29;20086;-74
2023/03/14 03:23:07;;;;;;;5.60;2.15;;;9.80;88.50;;;;;;4924974;29;20067;-73
2023/03/14 03:25:34;;;;;;;9.52;2.28;;;9.80;88.20;;;;;;4939391;29;20052;-70
2023/03/14 03:28:02;;;;;;;9.80;2.22;;;9.70;88.50;;;;;;4925845;29;20905;-70
2023/03/14 03:30:28;;;;;;;6.18;2.65;;;9.70;88.90;;;;;;4920056;29;20115;-69
2023/03/14 03:32:55;;;;;;;19.10;5.13;;;9.60;88.80;;;;;;4924598;29;20083;-70
2023/03/14 03:35:22;;;;;;;10.88;3.30;;;9.50;89.10;;;;;;4939851;28;20783;-70
2023/03/14 03:37:49;;;;;;;3.83;1.98;;;9.50;89.10;;;;;;4926372;29;20047;-70
2023/03/14 03:40:16;;;;;;;6.40;2.28;;;9.40;89.40;;;;;;4925160;29;20126;-70
2023/03/14 03:42:43;;;;;;;9.38;2.30;;;9.40;89.50;;;;;;4940445;29;20052;-69
2023/03/14 03:45:09;;;;;;;4.93;2.35;;;9.40;89.40;;;;;;4923676;29;20063;-70
2023/03/14 03:47:36;;;;;;;10.90;2.40;;;9.40;89.50;;;;;;4926603;29;20059;-70
2023/03/14 03:50:04;;;;;;;11.73;2.45;;;9.40;89.50;;;;;;4940662;28;20505;-69
2023/03/14 03:52:30;;;;;;;6.10;2.42;;;9.40;89.40;;;;;;4919465;29;20725;-70
2023/03/14 03:54:57;;;;;;;10.85;2.47;;;9.40;89.70;;;;;;4924848;29;20052;-70
2023/03/14 03:57:24;;;;;;;17.15;2.28;;;9.30;89.50;;;;;;4925323;29;20047;-70
2023/03/14 03:59:51;;;;;;;3.42;2.30;;;9.30;89.80;;;;;;4924700;29;20059;-70
2023/03/14 04:02:18;;;;;;;7.72;2.38;;;9.30;89.70;;;;;;4938370;28;20051;-70
2023/03/14 04:04:44;;;;;;;7.53;2.17;;;9.20;89.90;;;;;;4925769;29;20110;-70
2023/03/14 04:07:13;;;;;;;6.18;1.90;;;9.20;90.10;;;;;;4925000;29;20115;-70
2023/03/14 04:09:40;;;;;;;7.93;2.17;;;9.20;89.90;;;;;;4923671;29;20047;-70
2023/03/14 04:12:07;;;;;;;5.05;2.22;;;9.20;90.20;;;;;;4924973;29;20047;-69
2023/03/14 04:14:34;;;;;;;12.35;2.50;;;9.20;90.30;;;;;;4924775;29;20058;-70
2023/03/14 04:17:00;;;;;;;4.32;2.13;;;9.10;90.60;;;;;;4925570;29;20064;-70
2023/03/14 04:19:27;;;;;;;6.68;2.35;;;9.10;90.30;;;;;;4924930;29;20048;-70
2023/03/14 04:21:54;;;;;;;5.95;2.08;;;9.20;90.10;;;;;;4937878;28;20493;-70
2023/03/14 04:24:21;;;;;;;7.55;2.20;;;9.10;90.20;;;;;;4922002;29;20774;-69
2023/03/14 04:26:48;;;;;;;6.97;2.13;;;9.10;90.30;;;;;;4922913;29;20415;-69
2023/03/14 04:29:15;;;;;;;4.28;1.98;;;9.20;90.20;;;;;;4923685;29;20059;-69
2023/03/14 04:31:41;;;;;;;6.97;2.15;;;9.30;90.50;;;;;;4924698;29;20060;-70
2023/03/14 04:34:08;;;;;;;4.95;1.80;;;9.30;90.40;;;;;;4924403;29;20047;-69
2023/03/14 04:36:35;;;;;;;6.75;1.90;;;9.30;90.40;;;;;;4918080;29;20059;-69
2023/03/14 04:39:05;;;;;;;7.82;2.13;;;9.40;90.20;;;;;;4936375;29;20878;-70
2023/03/14 04:41:32;;;;;;;5.18;2.38;;;9.50;89.90;;;;;;4937452;29;20836;-70
2023/03/14 04:43:59;;;;;;;8.98;2.28;;;9.50;89.80;;;;;;4924195;29;20142;-70
2023/03/14 04:46:26;;;;;;;10.43;2.83;;;9.50;89.80;;;;;;4925034;29;20056;-70
2023/03/14 04:48:53;;;;;;;4.18;2.08;;;9.50;89.70;;;;;;4938762;28;20051;-70
2023/03/14 04:51:22;;;;;;;6.72;2.00;;;9.50;89.90;;;;;;4926900;29;20132;-69
2023/03/14 04:53:49;;;;;;;10.20;2.47;;;9.50;89.90;;;;;;4923116;29;20050;-70
2023/03/14 04:56:16;;;;;;;10.38;2.83;;;9.40;90.00;;;;;;4922742;29;20059;-70
2023/03/14 04:58:43;;;;;;;6.20;2.40;;;9.40;90.10;;;;;;4919797;29;20063;-69
2023/03/14 05:01:10;;;;;;;4.22;1.80;;;9.40;90.30;;;;;;4923924;29;20062;-69
2023/03/14 05:03:37;;;;;;;8.27;2.00;;;9.40;90.20;;;;;;4924122;29;20052;-69
2023/03/14 05:06:05;;;;;;;5.05;2.13;;;9.40;90.50;;;;;;4923861;29;20484;-69
2023/03/14 05:08:31;;;;;;;7.97;2.22;;;9.30;90.60;;;;;;4938206;28;20049;-70
2023/03/14 05:10:58;;;;;;;5.82;2.22;;;9.40;90.40;;;;;;4938919;29;20063;-69
2023/03/14 05:13:25;;;;;;;5.07;1.63;;;9.40;90.30;;;;;;4924337;29;20050;-69
2023/03/14 05:15:52;;;;;;;11.35;2.55;;;9.40;90.20;;;;;;4925012;29;20752;-69
2023/03/14 05:18:19;;;;;;;4.68;2.53;;;9.40;90.10;;;;;;4936869;28;20151;-69
2023/03/14 05:20:46;;;;;;;11.15;2.45;;;9.40;90.00;;;;;;4924586;29;20576;-70
2023/03/14 05:23:13;;;;;;;7.88;2.10;;;9.50;89.90;;;;;;4922369;29;20126;-73
2023/03/14 05:25:39;;;;;;;7.45;2.20;;;9.50;89.60;;;;;;4926559;29;20166;-74
2023/03/14 05:28:06;;;;;;;4.80;2.05;;;9.50;89.60;;;;;;4937032;28;20054;-73
2023/03/14 05:30:33;;;;;;;5.35;1.88;;;9.50;89.20;;;;;;4937736;29;20691;-73
2023/03/14 05:33:00;;;;;;;6.57;2.60;;;9.50;89.10;;;;;;4936158;29;20084;-74
2023/03/14 05:35:27;;;;;;;9.35;2.05;;;9.50;89.20;;;;;;4924496;29;20134;-74
2023/03/14 05:37:54;;;;;;;6.75;2.50;;;9.60;89.20;;;;;;4923605;29;20055;-73
2023/03/14 05:40:20;;;;;;;8.63;2.08;;;9.60;89.10;;;;;;4922268;29;20068;-73
2023/03/14 05:42:47;;;;;;;5.47;2.33;;;9.60;89.10;;;;;;4923887;29;20052;-73
2023/03/14 05:45:14;;;;;;;7.65;2.08;;;9.60;89.20;;;;;;4924650;29;20568;-73
2023/03/14 05:47:41;;;;;;;3.33;2.10;;;9.60;89.50;;;;;;4922907;29;20040;-73
2023/03/14 05:50:08;;;;;;;3.72;1.75;;;9.60;89.40;;;;;;4923771;29;20052;-74
2023/03/14 05:52:35;;;;;;;3.95;1.67;;;9.50;89.60;;;;;;4923948;29;20048;-73
2023/03/14 05:55:03;;;;;;;6.45;2.00;;;9.60;89.30;;;;;;4923590;29;20055;-73
2023/03/14 05:57:30;;;;;;;8.65;2.13;;;9.60;89.20;;;;;;4924088;29;20100;-74
2023/03/14 05:59:56;;;;;;;8.10;2.42;;;9.60;89.30;;;;;;4920553;29;20063;-73
2023/03/14 06:02:23;;;;;;;7.40;2.03;;;9.70;89.20;;;;;;4925377;29;20055;-73
2023/03/14 06:04:50;;;;;;;12.70;2.38;;;9.70;88.90;;;;;;4923903;29;20060;-72
2023/03/14 06:07:17;;;;;;;3.13;1.45;;;9.70;88.90;;;;;;4933990;28;20059;-74
2023/03/14 06:09:44;;;;;;;5.60;2.00;;;9.80;88.40;;;;;;4922678;29;20503;-73
2023/03/14 06:12:10;;;;;;;5.45;2.15;;;9.80;88.60;;;;;;4927238;29;20058;-74
2023/03/14 06:14:37;;;;;;;7.47;1.80;;;9.80;88.60;;;;;;4928283;29;20058;-74
2023/03/14 06:17:04;;;;;;;5.10;2.00;;;9.80;88.80;;;;;;4925108;29;20488;-73
2023/03/14 06:19:31;;;;;;;8.68;2.78;;;9.80;88.70;;;;;;4942298;28;20048;-74
2023/03/14 06:21:57;;;;;;;5.53;1.92;;;9.80;89.00;;;;;;4928661;29;20051;-74
2023/03/14 06:24:24;;;;;;;4.10;1.90;;;9.80;89.00;;;;;;4928724;29;20047;-76
2023/03/14 06:26:51;;;;;;;10.00;1.95;;;9.80;88.90;;;;;;4928465;29;20051;-78
2023/03/14 06:29:18;;;;;;;4.63;1.63;;;9.80;88.90;;;;;;4927197;29;20047;-75
2023/03/14 06:32:22;;;;;;;7.25;2.35;;;9.80;88.20;;;;;;4943512;29;20044;-76
2023/03/14 06:34:49;;;;;;;5.47;1.70;;;9.90;88.10;;;;;;4926009;29;20540;-73
2023/03/14 06:37:16;;;;;;;17.83;2.22;;;9.90;87.70;;;;;;4924336;29;20062;-73
2023/03/14 06:39:46;;;;;;;11.55;2.53;;;9.90;89.00;;;;;;4927058;29;20190;-84
2023/03/14 06:42:13;;;;;;;11.48;2.15;;;9.80;93.10;;;;;;4927354;29;20595;-72
2023/03/14 06:44:40;;;;;;;6.45;1.70;;;9.70;94.60;;;;;;4927194;29;20070;-69
2023/03/14 06:47:06;;;;;;;6.82;2.00;;;9.60;94.20;;;;;;4919534;29;20146;-69
2023/03/14 06:49:33;;;;;;;9.25;1.67;;;9.40;95.60;;;;;;4926698;29;20167;-69
2023/03/14 06:52:00;;;;;;;9.70;1.75;;;9.30;96.10;;;;;;4932082;29;20537;-70
2023/03/14 06:54:27;;;;;;;7.55;2.08;;;9.30;97.40;;;;;;4923037;29;20388;-74
2023/03/14 06:56:53;;;;;;;12.43;2.25;;;9.20;98.10;;;;;;4964045;23;20054;-70
2023/03/14 06:59:20;;;;;;;7.85;1.85;;;9.20;98.80;;;;;;5006804;28;20510;-70
2023/03/14 07:01:48;;;;;;;13.75;2.70;;;9.20;99.10;;;;;;4981468;28;20053;-70
2023/03/14 07:04:15;;;;;;;8.68;2.25;;;9.10;99.30;;;;;;4981233;28;20144;-70
2023/03/14 07:06:44;;;;;;;8.13;2.28;;;9.20;98.80;;;;;;5010655;28;20137;-70
2023/03/14 07:09:23;;;;;;;8.80;2.42;;;9.20;98.80;;;;;;4979196;28;20050;-69
2023/03/14 07:11:50;;;;;;;8.57;1.95;;;9.10;98.50;;;;;;4980918;28;20132;-75
2023/03/14 07:14:17;;;;;;;7.60;1.80;;;9.10;98.50;;;;;;4998692;28;20048;-74
2023/03/14 07:16:45;;;;;;;7.85;2.20;;;9.10;98.00;;;;;;4982248;28;20561;-73
2023/03/14 07:19:12;;;;;;;8.80;1.52;;;9.10;97.30;;;;;;4997634;28;20092;-75
2023/03/14 07:21:39;;;;;;;8.98;1.85;;;9.10;96.70;;;;;;4980003;28;20057;-74
2023/03/14 07:24:06;;;;;;;6.82;1.52;;;9.10;96.80;;;;;;4998203;28;20062;-74
2023/03/14 07:26:33;;;;;;;5.38;1.83;;;9.20;95.00;;;;;;5010339;28;20120;-74
2023/03/14 07:29:02;;;;;;;2.03;1.23;;;9.30;95.80;;;;;;4983389;28;20057;-75
2023/03/14 07:31:29;;;;;;;5.28;1.70;;;9.30;96.40;;;;;;4999651;28;20050;-74
2023/03/14 07:33:56;;;;;;;5.10;1.27;;;9.50;94.50;;;;;;4995521;28;20046;-74
2023/03/14 07:36:23;;;;;;;10.40;1.52;;;9.70;96.30;;;;;;4992044;23;20050;-69
2023/03/14 07:38:51;;;;;;;5.43;1.20;;;9.90;93.00;;;;;;5004792;23;20624;-70
2023/03/14 07:41:18;;;;;;;8.20;1.85;;;10.20;92.60;;;;;;5003277;28;20049;-74
2023/03/14 07:43:45;;;;;;;6.35;1.70;;;10.50;88.90;;;;;;4995686;23;20051;-69
2023/03/14 07:46:24;;;;;;;5.50;1.63;;;10.50;89.30;;;;;;4945386;28;20061;-74
2023/03/14 07:49:03;;;;;;;8.55;1.98;;;10.70;88.00;;;;;;4948531;28;20057;-74
2023/03/14 07:51:30;;;;;;;6.43;1.67;;;10.80;85.10;;;;;;4945821;28;21630;-75
2023/03/14 07:53:57;;;;;;;8.18;2.03;;;10.70;86.00;;;;;;4942236;28;20093;-76
2023/03/14 07:56:24;;;;;;;5.00;1.95;;;10.60;85.40;;;;;;4925141;28;20059;-76
2023/03/14 07:58:50;;;;;;;4.05;1.70;;;10.70;85.80;;;;;;4945663;28;20138;-70
2023/03/14 08:01:17;;;;;;;7.88;1.60;;;10.90;84.00;;;;;;4947018;28;20061;-70
2023/03/14 08:04:00;;;;;;;4.32;1.63;;;10.90;85.10;;;;;;4935541;28;20085;-71
2023/03/14 08:06:27;;;;;;;8.30;1.85;;;10.90;84.10;;;;;;4947312;28;20059;-70
2023/03/14 08:08:54;;;;;;;7.28;2.03;;;10.90;85.50;;;;;;4944022;29;20058;-70
2023/03/14 08:11:21;;;;;;;6.28;2.25;;;11.10;83.50;;;;;;4946393;28;20055;-70
2023/03/14 08:13:49;;;;;;;7.10;2.03;;;11.00;82.50;;;;;;4946000;28;20063;-70
2023/03/14 08:16:19;;;;;;;5.13;1.85;;;11.00;83.00;;;;;;4943676;28;20070;-70
2023/03/14 08:18:46;;;;;;;6.55;1.50;;;11.00;82.30;;;;;;4949134;28;20818;-70
2023/03/14 08:21:14;;;;;;;6.93;1.95;;;11.10;83.20;;;;;;4946594;28;20066;-70
2023/03/14 08:23:49;;;;;;;6.20;2.45;;;11.00;81.40;;;;;;4957297;28;20082;-75
2023/03/14 08:26:16;;;;;;;6.55;1.75;;;11.00;82.90;;;;;;4946891;28;20058;-70
2023/03/14 08:28:43;;;;;;;5.70;1.52;;;11.00;82.10;;;;;;4952990;28;20415;-70
2023/03/14 08:31:10;;;;;;;6.25;1.35;;;10.90;82.00;;;;;;4949279;28;20054;-70
2023/03/14 08:33:37;;;;;;;3.60;1.33;;;10.90;83.30;;;;;;4932443;28;20153;-70
2023/03/14 08:36:04;;;;;;;4.47;1.60;;;11.10;82.80;;;;;;4941691;28;20043;-70
2023/03/14 08:38:32;;;;;;;4.35;2.03;;;11.50;81.90;;;;;;4950778;28;20054;-70
2023/03/14 08:41:00;;;;;;;3.40;1.17;;;11.50;80.90;;;;;;4928634;29;20051;-75
2023/03/14 08:43:28;;;;;;;4.68;1.30;;;11.60;82.00;;;;;;4948455;28;20047;-75
2023/03/14 08:45:57;;;;;;;4.55;1.13;;;11.60;80.10;;;;;;4952773;28;20054;-76
2023/03/14 08:48:24;;;;;;;8.75;1.38;;;11.60;81.30;;;;;;4954020;28;20054;-75
2023/03/14 08:50:51;;;;;;;4.25;1.33;;;11.60;80.20;;;;;;4927215;29;20077;-76
2023/03/14 08:53:18;;;;;;;10.25;1.35;;;11.50;79.30;;;;;;4955349;28;20516;-75
2023/03/14 08:55:45;;;;;;;6.60;1.15;;;11.50;80.00;;;;;;4946274;28;20154;-76
2023/03/14 09:00:52;;;;;;;1.85;0.90;;;11.80;78.80;;;;;;4965268;28;20047;-70
2023/03/14 09:03:19;;;;;;;6.30;1.52;;;11.90;78.70;;;;;;4976376;28;20038;-70
2023/03/14 09:05:46;;;;;;;8.13;1.38;;;12.00;77.10;;;;;;4964635;28;20620;-70
2023/03/14 09:08:13;;;;;;;6.65;0.93;;;12.00;77.00;;;;;;4992719;22;20054;-77
2023/03/14 09:10:40;;;;;;;4.47;1.13;;;12.30;76.70;;;;;;4965035;28;20054;-71
2023/03/14 09:13:58;;;;;;;6.80;1.08;;;13.20;78.30;;;;;;4962176;28;20046;-71
2023/03/14 09:17:16;;;;;;;6.90;1.17;;;14.80;72.60;;;;;;4941768;28;20074;-76
2023/03/14 09:19:43;;;;;;;5.38;1.23;;;16.00;68.40;;;;;;4942987;28;20066;-77
2023/03/14 09:22:10;;;;;;;5.30;1.08;;;16.10;65.00;;;;;;4927352;29;20535;-76
2023/03/14 09:24:37;;;;;;;2.42;0.88;;;15.30;67.90;;;;;;4938508;29;20547;-71
2023/03/14 09:27:04;;;;;;;4.57;1.40;;;14.90;70.20;;;;;;4941206;28;20047;-71
2023/03/14 09:29:35;;;;;;;4.40;1.13;;;14.70;70.00;;;;;;4946482;28;20565;-71
2023/03/14 09:32:01;;;;;;;6.43;1.30;;;14.90;71.50;;;;;;4922650;29;20698;-76
2023/03/14 09:34:44;;;;;;;3.72;1.15;;;15.60;68.90;;;;;;4935666;23;20210;-76
2023/03/14 09:37:11;;;;;;;5.28;1.20;;;15.70;66.40;;;;;;4964953;28;20606;-76
2023/03/14 09:39:38;;;;;;;4.40;1.77;;;15.90;69.40;;;;;;4982957;28;20058;-76
2023/03/14 09:42:07;;;;;;;4.05;1.35;;;17.20;65.80;;;;;;4983216;28;20241;-76
2023/03/14 09:44:52;;;;;;;4.00;1.30;;;18.50;61.70;;;;;;4976015;28;20050;-76
2023/03/14 09:47:20;;;;;;;3.53;1.33;;;17.60;60.60;;;;;;4985506;28;20055;-76
2023/03/14 09:49:47;;;;;;;5.28;1.40;;;16.50;63.90;;;;;;4980778;28;20050;-76
2023/03/14 09:52:26;;;;;;;6.57;1.27;;;16.70;63.50;;;;;;4986794;28;20502;-76
2023/03/14 09:58:43;;;;;;;8.60;1.37;;;16.40;66.70;;;;;;5007398;23;20052;-71
2023/03/14 10:01:15;;;;;;;9.88;1.52;;;17.00;65.50;;;;;;5010464;23;20625;-76
2023/03/14 10:03:46;;;;;;;4.35;1.45;;;17.30;60.40;;;;;;4970611;28;20562;-76
2023/03/14 10:06:13;;;;;;;4.82;1.33;;;16.70;61.80;;;;;;4981682;28;20109;-76
2023/03/14 10:08:44;;;;;;;4.28;1.38;;;15.60;62.90;;;;;;4984268;28;20403;-76
2023/03/14 10:11:16;;;;;;;6.30;1.60;;;15.00;65.30;;;;;;4983238;28;20288;-76
2023/03/14 10:14:02;;;;;;;5.15;1.48;;;14.50;67.20;;;;;;4992895;28;20065;-71
2023/03/14 10:16:42;;;;;;;5.65;1.58;;;14.70;71.40;;;;;;4953981;28;20054;-71
2023/03/14 10:19:16;;;;;;;4.57;1.48;;;15.90;64.40;;;;;;4966421;28;20054;-71
2023/03/14 10:21:50;;;;;;;4.77;1.40;;;17.00;65.00;;;;;;4977614;28;20109;-72
2023/03/14 10:24:21;;;;;;;4.80;1.73;;;17.70;60.40;;;;;;4995910;28;20295;-71
2023/03/14 10:26:53;;;;;;;6.95;1.30;;;16.80;58.90;;;;;;4978243;28;20408;-72
2023/03/14 10:29:21;;;;;;;5.60;1.52;;;15.90;62.10;;;;;;4987100;28;20255;-72
2023/03/14 10:31:55;;;;;;;6.03;1.50;;;15.20;63.70;;;;;;4971913;28;20561;-73
2023/03/14 10:34:28;;;;;;;7.05;1.70;;;14.80;64.70;;;;;;4985248;28;20593;-71
2023/03/14 10:36:59;;;;;;;5.85;1.60;;;14.30;63.90;;;;;;4983547;28;20050;-71
2023/03/14 10:39:44;;;;;;;7.10;1.92;;;13.90;65.20;;;;;;4985296;28;20054;-73
2023/03/14 10:42:29;;;;;;;4.07;2.08;;;13.60;67.10;;;;;;4985283;28;20062;-71
2023/03/14 10:45:00;;;;;;;7.07;1.52;;;13.80;67.20;;;;;;4980741;28;20068;-71
2023/03/14 10:47:28;;;;;;;10.70;1.60;;;13.70;67.80;;;;;;4967998;28;20057;-71
2023/03/14 10:49:56;;;;;;;5.97;1.52;;;13.50;67.50;;;;;;4981830;28;20397;-71
2023/03/14 10:52:26;;;;;;;4.60;1.50;;;13.80;69.90;;;;;;4986780;28;20521;-72
2023/03/14 10:55:09;;;;;;;3.72;1.50;;;15.00;68.10;;;;;;4967969;28;20058;-71
2023/03/14 10:57:40;;;;;;;1.92;1.50;;;16.40;64.60;;;;;;4981001;28;20663;-71
2023/03/14 11:00:16;;;;;;;4.28;1.52;;;17.90;61.30;;;;;;4983118;28;20062;-71
2023/03/14 11:03:00;;;;;;;3.28;1.50;;;18.60;55.70;;;;;;4979935;28;20150;-71
2023/03/14 11:05:34;;;;;;;5.22;1.50;;;17.60;56.50;;;;;;4972283;28;20436;-72
2023/03/14 11:08:23;;;;;;;9.25;1.40;;;16.80;59.80;;;;;;4976969;28;20411;-71
2023/03/14 11:11:14;;;;;;;9.10;1.50;;;16.20;60.20;;;;;;4959126;28;20058;-72
2023/03/14 11:14:06;;;;;;;5.50;1.58;;;15.70;61.50;;;;;;4979059;28;20441;-71
2023/03/14 11:16:42;;;;;;;6.78;1.70;;;15.10;62.90;;;;;;4981764;28;20474;-71
2023/03/14 11:19:30;;;;;;;5.95;1.90;;;14.60;63.20;;;;;;4975618;28;20184;-71
2023/03/14 11:22:08;;;;;;;4.03;1.40;;;14.10;63.80;;;;;;4977874;28;20532;-71
2023/03/14 11:25:02;;;;;;;5.40;1.67;;;13.90;65.80;;;;;;4977253;28;20046;-71
2023/03/14 11:27:55;;;;;;;7.10;1.35;;;13.80;66.10;;;;;;4980640;28;20053;-71
2023/03/14 11:30:34;;;;;;;3.47;1.25;;;13.60;66.70;;;;;;4963811;28;20054;-71
2023/03/14 11:33:09;;;;;;;6.63;1.65;;;13.50;67.00;;;;;;4978780;28;20046;-71
2023/03/14 11:35:49;;;;;;;5.35;1.20;;;13.50;68.70;;;;;;4979127;28;20555;-71
2023/03/14 11:38:24;;;;;;;5.28;1.30;;;13.40;66.50;;;;;;4978145;28;20106;-71
2023/03/14 11:40:53;;;;;;;9.02;1.60;;;13.30;67.50;;;;;;4980689;28;20062;-71
2023/03/14 11:43:42;;;;;;;7.32;1.23;;;13.20;66.80;;;;;;4989269;28;20057;-71
2023/03/14 11:46:35;;;;;;;5.72;1.23;;;13.10;67.80;;;;;;4983285;28;20050;-71
2023/03/14 11:49:13;;;;;;;7.88;1.15;;;13.00;68.10;;;;;;4971692;28;20050;-71
2023/03/14 11:51:44;;;;;;;4.20;1.10;;;13.10;69.00;;;;;;4957003;28;20054;-71
2023/03/14 11:54:16;;;;;;;4.18;1.27;;;12.90;67.40;;;;;;4966128;28;20471;-71
2023/03/14 11:56:46;;;;;;;2.60;0.47;;;12.80;68.70;;;;;;4962936;28;20054;-70
2023/03/14 11:59:21;;;;;;;9.13;0.70;;;10.60;68.00;;;;;;4988759;28;20057;-70
2023/03/14 12:01:56;;;;;;;5.30;0.65;;;8.40;76.40;;;;;;4981324;28;20082;-71
2023/03/14 12:04:43;;;;;;;2.00;0.55;;;7.30;84.90;;;;;;4966548;28;20049;-71
2023/03/14 12:07:21;;;;;;;0.63;0.40;;;6.90;88.60;;;;;;4984568;28;20046;-71
2023/03/14 12:09:50;;;;;;;1.80;0.50;;;6.40;90.70;;;;;;4989183;28;20522;-70
2023/03/14 12:12:26;;;;;;;6.20;1.40;;;6.10;93.10;;;;;;4985847;28;20459;-70
2023/03/14 12:15:02;;;;;;;2.17;0.43;;;5.80;94.90;;;;;;4987055;28;20576;-70
2023/03/14 12:17:40;;;;;;;4.15;0.95;;;5.60;95.30;;;;;;4975303;28;20058;-70
2023/03/14 12:20:20;;;;;;;3.25;1.10;;;5.40;95.70;;;;;;4971732;28;20419;-70
2023/03/14 12:22:52;;;;;;;3.35;0.65;;;5.10;96.20;;;;;;4990530;28;20056;-70
2023/03/14 12:25:24;;;;;;;3.67;1.30;;;5.00;98.90;;;;;;4971611;28;20515;-70
2023/03/14 12:27:54;;;;;;;1.50;0.90;;;4.80;97.70;;;;;;4975353;28;20058;-70
2023/03/14 12:30:29;;;;;;;6.97;2.13;;;4.70;98.50;;;;;;4963124;28;20433;-70
2023/03/14 12:33:19;;;;;;;4.15;1.70;;;4.70;99.20;;;;;;4975806;28;20563;-71
2023/03/14 12:35:57;;;;;;;2.80;0.70;;;4.60;98.80;;;;;;4984905;28;20462;-71
2023/03/14 12:38:35;;;;;;;2.53;0.70;;;4.60;98.70;;;;;;4994306;28;20050;-71
2023/03/14 12:41:22;;;;;;;2.13;0.73;;;4.50;98.40;;;;;;4976157;28;20054;-71
2023/03/14 12:43:49;;;;;;;2.47;1.05;;;4.40;97.10;;;;;;4988352;28;20045;-71
2023/03/14 12:46:25;;;;;;;0.93;0.43;;;4.20;97.70;;;;;;4988254;28;20065;-71
2023/03/14 12:49:07;;;;;;;0.60;0.30;;;3.90;97.20;;;;;;4976642;28;20062;-70
2023/03/14 12:51:39;;;;;;;3.65;0.82;;;3.80;97.90;;;;;;4984017;28;20042;-70
2023/03/14 12:54:35;;;;;;;3.15;0.80;;;3.60;97.90;;;;;;4991277;28;20054;-70
2023/03/14 12:57:21;;;;;;;3.65;1.20;;;3.50;98.30;;;;;;4970086;28;20124;-70
2023/03/14 12:59:57;;;;;;;2.85;1.52;;;3.30;99.80;;;;;;4984499;28;20046;-70
2023/03/14 13:02:24;;;;;;;3.83;1.67;;;3.20;99.90;;;;;;4983028;28;20869;-70
2023/03/14 13:05:03;;;;;;;3.28;1.25;;;3.20;100.00;;;;;;4987491;28;20050;-70
2023/03/14 13:07:55;;;;;;;4.13;0.70;;;3.10;99.60;;;;;;4978618;28;20583;-70
2023/03/14 13:10:23;;;;;;;4.78;1.80;;;3.00;99.90;;;;;;4974012;28;20053;-70
2023/03/14 13:13:13;;;;;;;5.00;1.27;;;2.90;100.00;;;;;;4981860;28;20077;-70
2023/03/14 13:15:42;;;;;;;11.95;1.80;;;3.00;100.00;;;;;;4981388;28;20048;-74